This is the latest recevied weather packets stored in our database for station/object VA3XLC. If no packets are shown the sender has not sent any weather packets the latest 10 day(s).
| Time | Temp. | Humidity | Pressure | Rain* | Wind** | Luminosity | Snow |
|---|---|---|---|---|---|---|---|
| 1777534354 | 4.44° C | 78% | 978.4 hPa | - | - | 0 W/m² | - |
| 1777533753 | 4.44° C | 78% | 978.5 hPa | - | - | 0 W/m² | - |
| 1777531931 | 4.44° C | 79% | 978.6 hPa | - | - | 0 W/m² | - |
| 1777530408 | 4.44° C | 80% | 978.5 hPa | - | - | 0 W/m² | - |
| 1777524961 | 5.56° C | 80% | 978.5 hPa | - | - | 0 W/m² | - |
| 1777524661 | 5.56° C | 80% | 978.5 hPa | - | - | 0 W/m² | - |
| 1777522537 | 5° C | 83% | 978.5 hPa | - | - | 0 W/m² | - |
| 1777520113 | 5° C | 84% | 978.5 hPa | - | - | 0 W/m² | - |
| 1777517948 | 5° C | 84% | 978.5 hPa | - | - | 0 W/m² | - |
| 1777517347 | 5° C | 84% | 978.5 hPa | - | - | 0 W/m² | - |
| 1777516446 | 5° C | 84% | 978.6 hPa | - | - | 0 W/m² | - |
| 1777515824 | 5° C | 84% | 978.5 hPa | - | - | 0 W/m² | - |
| 1777515224 | 5° C | 83% | 978.5 hPa | - | - | 0 W/m² | - |
| 1777514023 | 5° C | 83% | 978.4 hPa | - | - | 0 W/m² | - |
| 1777513121 | 5.56° C | 83% | 978.2 hPa | - | - | 0 W/m² | - |
| 1777511578 | 5.56° C | 81% | 978 hPa | - | - | 0 W/m² | - |
| 1777510678 | 5.56° C | 81% | 977.9 hPa | - | - | 0 W/m² | - |
| 1777507912 | 6.67° C | 78% | 977.6 hPa | - | - | 9 W/m² | - |
| 1777505810 | 7.22° C | 78% | 977.3 hPa | - | - | 37 W/m² | - |
| 1777505510 | 7.78° C | 77% | 977.3 hPa | - | - | 34 W/m² | - |
| 1777503087 | 9.44° C | 74% | 977.1 hPa | - | - | 82 W/m² | - |
| 1777502187 | 10.56° C | 74% | 977 hPa | - | - | 101 W/m² | - |
| 1777501265 | 10.56° C | 72% | 976.9 hPa | - | - | 67 W/m² | - |
| 1777500965 | 10.56° C | 72% | 976.9 hPa | - | - | 80 W/m² | - |
| 1777500364 | 10.56° C | 71% | 976.8 hPa | - | - | 106 W/m² | - |
* Rain since midnight (hover to see other rain measurements)
** Current wind speed in m/s (hover to see current wind gust speed)